sensor_id;sensor_type;location;lat;lon;timestamp;pressure;altitude;pressure_sealevel;temperature;humidity
82379;BME280;72008;48.140;11.614;2023-09-30T00:00:16;96230.78;;;19.60;58.30
82379;BME280;72008;48.140;11.614;2023-09-30T00:01:17;96229.56;;;19.61;57.55
82379;BME280;72008;48.140;11.614;2023-09-30T00:02:17;96227.19;;;19.59;58.20
82379;BME280;72008;48.140;11.614;2023-09-30T00:03:18;96230.41;;;19.61;57.80
82379;BME280;72008;48.140;11.614;2023-09-30T00:04:18;96220.06;;;19.58;59.26
82379;BME280;72008;48.140;11.614;2023-09-30T00:05:19;96222.44;;;19.60;58.31
82379;BME280;72008;48.140;11.614;2023-09-30T00:06:19;96222.00;;;19.58;57.87
82379;BME280;72008;48.140;11.614;2023-09-30T00:07:19;96218.06;;;19.59;57.72
82379;BME280;72008;48.140;11.614;2023-09-30T00:08:20;96224.78;;;19.54;58.79
82379;BME280;72008;48.140;11.614;2023-09-30T00:09:20;96221.53;;;19.48;57.62
82379;BME280;72008;48.140;11.614;2023-09-30T00:10:21;96223.09;;;19.46;57.65
82379;BME280;72008;48.140;11.614;2023-09-30T00:11:21;96229.41;;;19.43;57.57
82379;BME280;72008;48.140;11.614;2023-09-30T00:12:22;96228.66;;;19.46;58.75
82379;BME280;72008;48.140;11.614;2023-09-30T00:13:22;96229.34;;;19.32;58.54
82379;BME280;72008;48.140;11.614;2023-09-30T00:14:23;96222.63;;;19.37;57.88
82379;BME280;72008;48.140;11.614;2023-09-30T00:15:23;96223.06;;;19.42;58.91
82379;BME280;72008;48.140;11.614;2023-09-30T00:16:24;96226.91;;;19.27;57.53
82379;BME280;72008;48.140;11.614;2023-09-30T00:17:24;96228.53;;;19.31;57.97
82379;BME280;72008;48.140;11.614;2023-09-30T00:18:25;96231.69;;;19.30;58.46
82379;BME280;72008;48.140;11.614;2023-09-30T00:19:25;96224.56;;;19.29;58.89
82379;BME280;72008;48.140;11.614;2023-09-30T00:20:26;96230.50;;;19.31;57.83
82379;BME280;72008;48.140;11.614;2023-09-30T00:21:26;96235.25;;;19.30;58.39
82379;BME280;72008;48.140;11.614;2023-09-30T00:22:26;96235.69;;;19.32;58.00
82379;BME280;72008;48.140;11.614;2023-09-30T00:23:27;96241.97;;;19.26;58.40
82379;BME280;72008;48.140;11.614;2023-09-30T00:24:27;96242.00;;;19.29;58.36
82379;BME280;72008;48.140;11.614;2023-09-30T00:25:28;96241.97;;;19.26;58.10
82379;BME280;72008;48.140;11.614;2023-09-30T00:26:28;96237.25;;;19.30;57.96
82379;BME280;72008;48.140;11.614;2023-09-30T00:27:28;96242.41;;;19.31;57.82
82379;BME280;72008;48.140;11.614;2023-09-30T00:28:29;96244.81;;;19.33;58.76
82379;BME280;72008;48.140;11.614;2023-09-30T00:29:29;96248.38;;;19.33;58.16
82379;BME280;72008;48.140;11.614;2023-09-30T00:30:30;96251.16;;;19.33;59.27
82379;BME280;72008;48.140;11.614;2023-09-30T00:31:31;96257.47;;;19.30;57.81
82379;BME280;72008;48.140;11.614;2023-09-30T00:32:32;96253.88;;;19.26;58.11
82379;BME280;72008;48.140;11.614;2023-09-30T00:33:32;96253.88;;;19.26;57.96
82379;BME280;72008;48.140;11.614;2023-09-30T00:34:34;96249.91;;;19.27;57.37
82379;BME280;72008;48.140;11.614;2023-09-30T00:35:34;96246.34;;;19.30;57.76
82379;BME280;72008;48.140;11.614;2023-09-30T00:36:35;96242.78;;;19.30;58.13
82379;BME280;72008;48.140;11.614;2023-09-30T00:37:35;96245.19;;;19.31;58.55
82379;BME280;72008;48.140;11.614;2023-09-30T00:38:36;96244.44;;;19.35;57.63
82379;BME280;72008;48.140;11.614;2023-09-30T00:39:37;96247.97;;;19.31;59.55
82379;BME280;72008;48.140;11.614;2023-09-30T00:40:37;96242.81;;;19.33;58.77
82379;BME280;72008;48.140;11.614;2023-09-30T00:41:40;96246.38;;;19.34;58.08
82379;BME280;72008;48.140;11.614;2023-09-30T00:42:41;96245.94;;;19.28;58.01
82379;BME280;72008;48.140;11.614;2023-09-30T00:43:41;96244.38;;;19.31;58.58
82379;BME280;72008;48.140;11.614;2023-09-30T00:44:42;96253.88;;;19.26;58.17
82379;BME280;72008;48.140;11.614;2023-09-30T00:45:43;96244.78;;;19.29;58.36
82379;BME280;72008;48.140;11.614;2023-09-30T00:46:44;96252.66;;;19.24;57.12
82379;BME280;72008;48.140;11.614;2023-09-30T00:47:45;96246.66;;;19.22;58.75
82379;BME280;72008;48.140;11.614;2023-09-30T00:48:45;96243.50;;;19.20;58.30
82379;BME280;72008;48.140;11.614;2023-09-30T00:49:46;96245.88;;;19.21;58.61
82379;BME280;72008;48.140;11.614;2023-09-30T00:50:47;96251.00;;;19.19;58.28
82379;BME280;72008;48.140;11.614;2023-09-30T00:51:47;96252.53;;;19.13;58.98
82379;BME280;72008;48.140;11.614;2023-09-30T00:52:49;96254.94;;;19.15;58.18
82379;BME280;72008;48.140;11.614;2023-09-30T00:53:56;96251.28;;;19.10;59.06
82379;BME280;72008;48.140;11.614;2023-09-30T00:54:58;96242.19;;;19.10;58.67
82379;BME280;72008;48.140;11.614;2023-09-30T00:56:00;96248.53;;;19.10;58.13
82379;BME280;72008;48.140;11.614;2023-09-30T00:57:01;96241.38;;;19.09;58.04
82379;BME280;72008;48.140;11.614;2023-09-30T00:58:02;96246.19;;;19.13;59.34
82379;BME280;72008;48.140;11.614;2023-09-30T00:59:03;96245.00;;;19.14;59.39
82379;BME280;72008;48.140;11.614;2023-09-30T01:00:04;96247.75;;;19.14;59.35
82379;BME280;72008;48.140;11.614;2023-09-30T01:01:05;96242.56;;;19.08;58.05
82379;BME280;72008;48.140;11.614;2023-09-30T01:02:06;96248.78;;;18.98;60.11
82379;BME280;72008;48.140;11.614;2023-09-30T01:03:07;96258.28;;;18.97;58.60
82379;BME280;72008;48.140;11.614;2023-09-30T01:04:08;96255.94;;;18.99;59.62
82379;BME280;72008;48.140;11.614;2023-09-30T01:05:09;96250.47;;;19.06;59.60
82379;BME280;72008;48.140;11.614;2023-09-30T01:06:09;96258.44;;;19.08;59.37
82379;BME280;72008;48.140;11.614;2023-09-30T01:07:09;96255.25;;;19.09;59.79
82379;BME280;72008;48.140;11.614;2023-09-30T01:08:10;96267.59;;;19.12;59.87
82379;BME280;72008;48.140;11.614;2023-09-30T01:09:10;96257.59;;;19.07;60.21
82379;BME280;72008;48.140;11.614;2023-09-30T01:10:11;96259.25;;;19.12;60.07
82379;BME280;72008;48.140;11.614;2023-09-30T01:11:13;96261.56;;;19.06;59.63
82379;BME280;72008;48.140;11.614;2023-09-30T01:12:14;96257.59;;;19.07;59.37
82379;BME280;72008;48.140;11.614;2023-09-30T01:13:14;96258.00;;;19.06;60.37
82379;BME280;72008;48.140;11.614;2023-09-30T01:14:28;96257.09;;;18.98;59.95
82379;BME280;72008;48.140;11.614;2023-09-30T01:15:29;96260.31;;;19.00;59.22
82379;BME280;72008;48.140;11.614;2023-09-30T01:16:29;96261.91;;;19.01;59.30
82379;BME280;72008;48.140;11.614;2023-09-30T01:17:30;96267.50;;;19.05;59.80
82379;BME280;72008;48.140;11.614;2023-09-30T01:18:30;96261.56;;;19.06;59.44
82379;BME280;72008;48.140;11.614;2023-09-30T01:19:30;96262.72;;;19.02;59.35
82379;BME280;72008;48.140;11.614;2023-09-30T01:20:32;96255.19;;;19.02;59.12
82379;BME280;72008;48.140;11.614;2023-09-30T01:21:34;96261.09;;;19.01;59.58
82379;BME280;72008;48.140;11.614;2023-09-30T01:22:34;96256.34;;;19.01;59.20
82379;BME280;72008;48.140;11.614;2023-09-30T01:23:35;96255.13;;;18.99;59.80
82379;BME280;72008;48.140;11.614;2023-09-30T01:24:40;96245.25;;;19.01;60.03
82379;BME280;72008;48.140;11.614;2023-09-30T01:25:40;96247.28;;;19.04;60.40
82379;BME280;72008;48.140;11.614;2023-09-30T01:26:41;96250.03;;;19.04;59.91
82379;BME280;72008;48.140;11.614;2023-09-30T01:27:41;96246.47;;;19.04;60.54
82379;BME280;72008;48.140;11.614;2023-09-30T01:28:42;96249.66;;;19.02;60.97
82379;BME280;72008;48.140;11.614;2023-09-30T01:29:42;96244.09;;;19.02;60.44
82379;BME280;72008;48.140;11.614;2023-09-30T01:30:42;96248.03;;;19.01;60.84
82379;BME280;72008;48.140;11.614;2023-09-30T01:31:43;96254.31;;;18.95;59.85
82379;BME280;72008;48.140;11.614;2023-09-30T01:32:44;96243.59;;;18.93;60.28
82379;BME280;72008;48.140;11.614;2023-09-30T01:33:44;96241.66;;;18.97;60.92
82379;BME280;72008;48.140;11.614;2023-09-30T01:34:44;96242.84;;;18.96;61.35
82379;BME280;72008;48.140;11.614;2023-09-30T01:35:45;96242.84;;;18.96;59.98
82379;BME280;72008;48.140;11.614;2023-09-30T01:36:46;96244.44;;;18.97;60.33
82379;BME280;72008;48.140;11.614;2023-09-30T01:37:46;96236.09;;;18.97;59.64
82379;BME280;72008;48.140;11.614;2023-09-30T01:38:46;96247.19;;;18.97;59.95
82379;BME280;72008;48.140;11.614;2023-09-30T01:39:47;96244.78;;;18.96;61.22
82379;BME280;72008;48.140;11.614;2023-09-30T01:40:47;96244.75;;;18.92;61.09
82379;BME280;72008;48.140;11.614;2023-09-30T01:41:48;96253.06;;;18.92;59.95
82379;BME280;72008;48.140;11.614;2023-09-30T01:42:48;96258.22;;;18.90;60.57
82379;BME280;72008;48.140;11.614;2023-09-30T01:43:49;96252.91;;;18.78;61.01
82379;BME280;72008;48.140;11.614;2023-09-30T01:44:49;96247.47;;;18.85;59.91
82379;BME280;72008;48.140;11.614;2023-09-30T01:45:50;96258.16;;;18.86;60.59
82379;BME280;72008;48.140;11.614;2023-09-30T01:46:50;96255.81;;;18.89;60.25
82379;BME280;72008;48.140;11.614;2023-09-30T01:47:51;96255.38;;;18.86;60.96
82379;BME280;72008;48.140;11.614;2023-09-30T01:48:51;96254.25;;;18.91;61.46
82379;BME280;72008;48.140;11.614;2023-09-30T01:49:51;96262.16;;;18.89;60.31
82379;BME280;72008;48.140;11.614;2023-09-30T01:50:52;96255.44;;;18.90;61.20
82379;BME280;72008;48.140;11.614;2023-09-30T01:51:52;96254.25;;;18.91;61.03
82379;BME280;72008;48.140;11.614;2023-09-30T01:52:53;96255.84;;;18.92;61.57
82379;BME280;72008;48.140;11.614;2023-09-30T01:53:53;96258.59;;;18.89;60.63
82379;BME280;72008;48.140;11.614;2023-09-30T01:54:53;96256.19;;;18.87;60.61
82379;BME280;72008;48.140;11.614;2023-09-30T01:55:54;96262.13;;;18.85;61.71
82379;BME280;72008;48.140;11.614;2023-09-30T01:56:54;96260.13;;;18.86;61.30
82379;BME280;72008;48.140;11.614;2023-09-30T01:57:55;96257.41;;;18.90;61.96
82379;BME280;72008;48.140;11.614;2023-09-30T01:58:55;96258.63;;;18.92;61.20
82379;BME280;72008;48.140;11.614;2023-09-30T01:59:55;96259.72;;;18.84;60.77
82379;BME280;72008;48.140;11.614;2023-09-30T02:01:02;96260.09;;;18.82;61.58
82379;BME280;72008;48.140;11.614;2023-09-30T02:02:02;96255.75;;;18.81;61.47
82379;BME280;72008;48.140;11.614;2023-09-30T02:03:03;96253.75;;;18.82;61.84
82379;BME280;72008;48.140;11.614;2023-09-30T02:04:04;96253.34;;;18.80;61.89
82379;BME280;72008;48.140;11.614;2023-09-30T02:05:05;96258.88;;;18.80;61.92
82379;BME280;72008;48.140;11.614;2023-09-30T02:06:05;96252.00;;;18.70;60.85
82379;BME280;72008;48.140;11.614;2023-09-30T02:07:06;96252.00;;;18.70;61.17
82379;BME280;72008;48.140;11.614;2023-09-30T02:08:06;96255.94;;;18.69;61.59
82379;BME280;72008;48.140;11.614;2023-09-30T02:09:07;96245.59;;;18.66;61.81
82379;BME280;72008;48.140;11.614;2023-09-30T02:10:07;96246.47;;;18.70;62.18
82379;BME280;72008;48.140;11.614;2023-09-30T02:11:08;96255.13;;;18.69;62.08
82379;BME280;72008;48.140;11.614;2023-09-30T02:12:08;96255.19;;;18.72;61.86
82379;BME280;72008;48.140;11.614;2023-09-30T02:13:09;96256.81;;;18.73;61.79
82379;BME280;72008;48.140;11.614;2023-09-30T02:14:10;96256.75;;;18.70;61.29
82379;BME280;72008;48.140;11.614;2023-09-30T02:15:10;96254.75;;;18.67;62.02
82379;BME280;72008;48.140;11.614;2023-09-30T02:16:14;96260.22;;;18.63;62.16
82379;BME280;72008;48.140;11.614;2023-09-30T02:17:15;96263.00;;;18.63;62.21
82379;BME280;72008;48.140;11.614;2023-09-30T02:18:15;96267.41;;;18.68;62.35
82379;BME280;72008;48.140;11.614;2023-09-30T02:19:16;96261.44;;;18.65;60.94
82379;BME280;72008;48.140;11.614;2023-09-30T02:20:16;96259.06;;;18.64;61.90
82379;BME280;72008;48.140;11.614;2023-09-30T02:21:16;96260.59;;;18.61;61.75
82379;BME280;72008;48.140;11.614;2023-09-30T02:22:17;96259.81;;;18.61;60.91
82379;BME280;72008;48.140;11.614;2023-09-30T02:23:17;96257.84;;;18.61;61.31
82379;BME280;72008;48.140;11.614;2023-09-30T02:24:18;96252.66;;;18.60;61.51
82379;BME280;72008;48.140;11.614;2023-09-30T02:25:18;96251.50;;;18.61;61.15
82379;BME280;72008;48.140;11.614;2023-09-30T02:26:18;96251.50;;;18.61;62.02
82379;BME280;72008;48.140;11.614;2023-09-30T02:27:19;96251.84;;;18.59;62.07
82379;BME280;72008;48.140;11.614;2023-09-30T02:28:19;96258.63;;;18.62;62.67
82379;BME280;72008;48.140;11.614;2023-09-30T02:29:20;96250.59;;;18.53;61.74
82379;BME280;72008;48.140;11.614;2023-09-30T02:30:20;96252.56;;;18.53;61.12
82379;BME280;72008;48.140;11.614;2023-09-30T02:31:20;96248.63;;;18.54;61.64
82379;BME280;72008;48.140;11.614;2023-09-30T02:32:21;96257.31;;;18.52;61.74
82379;BME280;72008;48.140;11.614;2023-09-30T02:33:21;96254.16;;;18.54;61.34
82379;BME280;72008;48.140;11.614;2023-09-30T02:34:22;96258.53;;;18.55;61.38
82379;BME280;72008;48.140;11.614;2023-09-30T02:35:22;96258.53;;;18.55;61.32
82379;BME280;72008;48.140;11.614;2023-09-30T02:36:23;96259.75;;;18.57;62.66
82379;BME280;72008;48.140;11.614;2023-09-30T02:37:23;96262.16;;;18.59;62.51
82379;BME280;72008;48.140;11.614;2023-09-30T02:38:23;96259.38;;;18.59;61.49
82379;BME280;72008;48.140;11.614;2023-09-30T02:39:24;96260.56;;;18.58;62.05
82379;BME280;72008;48.140;11.614;2023-09-30T02:40:24;96253.84;;;18.59;62.49
82379;BME280;72008;48.140;11.614;2023-09-30T02:41:25;96256.97;;;18.57;62.52
82379;BME280;72008;48.140;11.614;2023-09-30T02:42:25;96257.69;;;18.51;62.21
82379;BME280;72008;48.140;11.614;2023-09-30T02:43:25;96257.63;;;18.47;61.52
82379;BME280;72008;48.140;11.614;2023-09-30T02:44:26;96264.03;;;18.51;61.75
82379;BME280;72008;48.140;11.614;2023-09-30T02:45:26;96253.75;;;18.52;61.33
82379;BME280;72008;48.140;11.614;2023-09-30T02:46:27;96248.97;;;18.49;62.59
82379;BME280;72008;48.140;11.614;2023-09-30T02:47:27;96255.34;;;18.53;62.13
82379;BME280;72008;48.140;11.614;2023-09-30T02:48:27;96253.75;;;18.52;62.32
82379;BME280;72008;48.140;11.614;2023-09-30T02:49:28;96262.44;;;18.50;62.56
82379;BME280;72008;48.140;11.614;2023-09-30T02:50:28;96253.38;;;18.53;62.48
82379;BME280;72008;48.140;11.614;2023-09-30T02:51:29;96251.34;;;18.50;62.31
82379;BME280;72008;48.140;11.614;2023-09-30T02:52:29;96262.34;;;18.43;62.51
82379;BME280;72008;48.140;11.614;2023-09-30T02:53:29;96259.09;;;18.37;62.31
82379;BME280;72008;48.140;11.614;2023-09-30T02:54:31;96252.75;;;18.37;62.26
82379;BME280;72008;48.140;11.614;2023-09-30T02:55:31;96257.56;;;18.40;62.40
82379;BME280;72008;48.140;11.614;2023-09-30T02:56:31;96257.16;;;18.41;62.40
82379;BME280;72008;48.140;11.614;2023-09-30T02:57:32;96257.56;;;18.40;62.76
82379;BME280;72008;48.140;11.614;2023-09-30T02:58:32;96257.56;;;18.40;63.24
82379;BME280;72008;48.140;11.614;2023-09-30T02:59:33;96250.03;;;18.40;62.89
82379;BME280;72008;48.140;11.614;2023-09-30T03:00:34;96250.81;;;18.41;62.74
82379;BME280;72008;48.140;11.614;2023-09-30T03:01:34;96249.66;;;18.42;63.24
82379;BME280;72008;48.140;11.614;2023-09-30T03:02:35;96255.97;;;18.42;63.10
82379;BME280;72008;48.140;11.614;2023-09-30T03:03:35;96254.78;;;18.40;63.08
82379;BME280;72008;48.140;11.614;2023-09-30T03:04:36;96255.56;;;18.40;62.93
82379;BME280;72008;48.140;11.614;2023-09-30T03:05:36;96254.81;;;18.44;63.51
82379;BME280;72008;48.140;11.614;2023-09-30T03:06:36;96263.13;;;18.44;62.56
82379;BME280;72008;48.140;11.614;2023-09-30T03:07:37;96253.59;;;18.41;63.08
82379;BME280;72008;48.140;11.614;2023-09-30T03:08:37;96261.47;;;18.39;62.87
82379;BME280;72008;48.140;11.614;2023-09-30T03:09:38;96258.22;;;18.33;61.77
82379;BME280;72008;48.140;11.614;2023-09-30T03:10:38;96251.47;;;18.31;62.98
82379;BME280;72008;48.140;11.614;2023-09-30T03:11:39;96259.06;;;18.34;62.01
82379;BME280;72008;48.140;11.614;2023-09-30T03:12:39;96252.66;;;18.30;62.26
82379;BME280;72008;48.140;11.614;2023-09-30T03:13:40;96262.94;;;18.29;62.28
82379;BME280;72008;48.140;11.614;2023-09-30T03:14:40;96253.78;;;18.25;62.14
82379;BME280;72008;48.140;11.614;2023-09-30T03:15:41;96251.81;;;18.26;62.81
82379;BME280;72008;48.140;11.614;2023-09-30T03:16:41;96260.53;;;18.28;63.67
82379;BME280;72008;48.140;11.614;2023-09-30T03:17:42;96256.59;;;18.29;63.27
82379;BME280;72008;48.140;11.614;2023-09-30T03:18:43;96254.63;;;18.29;63.64
82379;BME280;72008;48.140;11.614;2023-09-30T03:19:43;96260.22;;;18.33;63.28
82379;BME280;72008;48.140;11.614;2023-09-30T03:20:44;96255.06;;;18.31;62.74
82379;BME280;72008;48.140;11.614;2023-09-30T03:21:44;96256.56;;;18.25;63.88
82379;BME280;72008;48.140;11.614;2023-09-30T03:22:44;96257.72;;;18.24;63.53
82379;BME280;72008;48.140;11.614;2023-09-30T03:23:45;96257.66;;;18.21;63.26
82379;BME280;72008;48.140;11.614;2023-09-30T03:24:45;96256.06;;;18.19;64.06
82379;BME280;72008;48.140;11.614;2023-09-30T03:25:46;96262.03;;;18.22;64.12
82379;BME280;72008;48.140;11.614;2023-09-30T03:26:46;96259.69;;;18.24;62.71
82379;BME280;72008;48.140;11.614;2023-09-30T03:27:47;96262.41;;;18.20;63.21
82379;BME280;72008;48.140;11.614;2023-09-30T03:28:48;96255.69;;;18.21;63.85
82379;BME280;72008;48.140;11.614;2023-09-30T03:29:48;96253.22;;;18.16;63.47
82379;BME280;72008;48.140;11.614;2023-09-30T03:30:49;96262.69;;;18.11;63.34
82379;BME280;72008;48.140;11.614;2023-09-30T03:31:49;96262.72;;;18.15;63.15
82379;BME280;72008;48.140;11.614;2023-09-30T03:32:49;96269.06;;;18.15;63.15
82379;BME280;72008;48.140;11.614;2023-09-30T03:33:50;96269.06;;;18.15;62.65
82379;BME280;72008;48.140;11.614;2023-09-30T03:34:52;96270.25;;;18.14;62.90
82379;BME280;72008;48.140;11.614;2023-09-30T03:35:52;96263.47;;;18.12;63.32
82379;BME280;72008;48.140;11.614;2023-09-30T03:36:53;96269.00;;;18.12;63.28
82379;BME280;72008;48.140;11.614;2023-09-30T03:37:53;96271.78;;;18.12;62.86
82379;BME280;72008;48.140;11.614;2023-09-30T03:38:54;96267.47;;;18.14;64.27
82379;BME280;72008;48.140;11.614;2023-09-30T03:39:54;96270.16;;;18.07;63.35
82379;BME280;72008;48.140;11.614;2023-09-30T03:40:55;96269.41;;;18.10;63.99
82379;BME280;72008;48.140;11.614;2023-09-30T03:41:56;96275.31;;;18.09;63.45
82379;BME280;72008;48.140;11.614;2023-09-30T03:42:56;96276.03;;;18.06;63.64
82379;BME280;72008;48.140;11.614;2023-09-30T03:43:57;96272.84;;;18.04;63.37
82379;BME280;72008;48.140;11.614;2023-09-30T03:44:57;96272.47;;;18.05;62.36
82379;BME280;72008;48.140;11.614;2023-09-30T03:45:57;96271.75;;;18.08;63.01
82379;BME280;72008;48.140;11.614;2023-09-30T03:46:58;96269.75;;;18.09;62.21
82379;BME280;72008;48.140;11.614;2023-09-30T03:47:58;96277.72;;;18.10;63.45
82379;BME280;72008;48.140;11.614;2023-09-30T03:48:59;96268.22;;;18.11;63.33
82379;BME280;72008;48.140;11.614;2023-09-30T03:49:59;96261.94;;;18.14;62.63
82379;BME280;72008;48.140;11.614;2023-09-30T03:51:10;96262.69;;;18.11;63.55
82379;BME280;72008;48.140;11.614;2023-09-30T03:52:11;96259.84;;;18.08;63.42
82379;BME280;72008;48.140;11.614;2023-09-30T03:53:12;96259.47;;;18.09;64.00
82379;BME280;72008;48.140;11.614;2023-09-30T03:54:12;96264.59;;;18.07;63.26
82379;BME280;72008;48.140;11.614;2023-09-30T03:55:13;96258.19;;;18.03;64.03
82379;BME280;72008;48.140;11.614;2023-09-30T03:56:14;96264.91;;;18.02;64.25
82379;BME280;72008;48.140;11.614;2023-09-30T03:57:14;96257.84;;;18.05;63.90
82379;BME280;72008;48.140;11.614;2023-09-30T03:58:15;96264.91;;;18.02;63.92
82379;BME280;72008;48.140;11.614;2023-09-30T03:59:15;96260.13;;;17.99;63.82
82379;BME280;72008;48.140;11.614;2023-09-30T04:00:15;96264.47;;;18.00;63.84
82379;BME280;72008;48.140;11.614;2023-09-30T04:01:16;96274.03;;;18.03;63.23
82379;BME280;72008;48.140;11.614;2023-09-30T04:02:16;96267.25;;;18.00;63.09
82379;BME280;72008;48.140;11.614;2023-09-30T04:03:17;96270.47;;;18.02;64.44
82379;BME280;72008;48.140;11.614;2023-09-30T04:04:17;96272.44;;;18.02;63.49
82379;BME280;72008;48.140;11.614;2023-09-30T04:05:18;96265.72;;;18.03;64.38
82379;BME280;72008;48.140;11.614;2023-09-30T04:06:18;96269.59;;;17.98;63.93
82379;BME280;72008;48.140;11.614;2023-09-30T04:07:19;96262.41;;;17.93;63.69
82379;BME280;72008;48.140;11.614;2023-09-30T04:08:19;96266.28;;;17.89;63.68
82379;BME280;72008;48.140;11.614;2023-09-30T04:09:20;96269.13;;;17.92;63.57
82379;BME280;72008;48.140;11.614;2023-09-30T04:10:20;96266.41;;;17.96;63.84
82379;BME280;72008;48.140;11.614;2023-09-30T04:11:20;96264.78;;;17.95;64.06
82379;BME280;72008;48.140;11.614;2023-09-30T04:12:21;96265.22;;;17.97;64.27
82379;BME280;72008;48.140;11.614;2023-09-30T04:13:22;96271.16;;;17.95;64.18
82379;BME280;72008;48.140;11.614;2023-09-30T04:14:22;96262.84;;;17.95;64.02
82379;BME280;72008;48.140;11.614;2023-09-30T04:15:23;96264.88;;;17.99;64.73
82379;BME280;72008;48.140;11.614;2023-09-30T04:16:23;96251.38;;;17.97;64.32
82379;BME280;72008;48.140;11.614;2023-09-30T04:17:24;96255.69;;;17.94;64.29
82379;BME280;72008;48.140;11.614;2023-09-30T04:18:24;96252.16;;;17.98;64.86
82379;BME280;72008;48.140;11.614;2023-09-30T04:19:25;96260.91;;;18.00;64.32
82379;BME280;72008;48.140;11.614;2023-09-30T04:20:25;96256.91;;;17.97;64.42
82379;BME280;72008;48.140;11.614;2023-09-30T04:21:26;96265.66;;;17.99;65.02
82379;BME280;72008;48.140;11.614;2023-09-30T04:22:26;96259.69;;;17.97;63.32
82379;BME280;72008;48.140;11.614;2023-09-30T04:23:26;96267.16;;;17.93;63.97
82379;BME280;72008;48.140;11.614;2023-09-30T04:24:27;96266.72;;;17.91;64.17
82379;BME280;72008;48.140;11.614;2023-09-30T04:25:27;96265.53;;;17.92;64.19
82379;BME280;72008;48.140;11.614;2023-09-30T04:26:28;96264.38;;;17.93;64.61
82379;BME280;72008;48.140;11.614;2023-09-30T04:27:28;96261.22;;;17.94;64.43
82379;BME280;72008;48.140;11.614;2023-09-30T04:28:29;96266.41;;;17.96;63.97
82379;BME280;72008;48.140;11.614;2023-09-30T04:29:29;96263.19;;;17.94;64.83
82379;BME280;72008;48.140;11.614;2023-09-30T04:30:29;96257.66;;;17.94;64.62
82379;BME280;72008;48.140;11.614;2023-09-30T04:31:30;96265.13;;;17.90;63.75
82379;BME280;72008;48.140;11.614;2023-09-30T04:32:30;96263.16;;;17.90;64.61
82379;BME280;72008;48.140;11.614;2023-09-30T04:33:31;96264.75;;;17.91;64.67
82379;BME280;72008;48.140;11.614;2023-09-30T04:34:31;96262.41;;;17.93;64.44
82379;BME280;72008;48.140;11.614;2023-09-30T04:35:31;96264.31;;;17.89;63.95
82379;BME280;72008;48.140;11.614;2023-09-30T04:36:32;96267.50;;;17.91;64.48
82379;BME280;72008;48.140;11.614;2023-09-30T04:37:32;96270.28;;;17.91;63.71
82379;BME280;72008;48.140;11.614;2023-09-30T04:38:33;96273.44;;;17.90;64.48
82379;BME280;72008;48.140;11.614;2023-09-30T04:39:33;96271.03;;;17.88;64.93
82379;BME280;72008;48.140;11.614;2023-09-30T04:40:33;96269.44;;;17.87;64.96
82379;BME280;72008;48.140;11.614;2023-09-30T04:41:34;96280.47;;;17.84;64.50
82379;BME280;72008;48.140;11.614;2023-09-30T04:42:34;96278.03;;;17.82;65.27
82379;BME280;72008;48.140;11.614;2023-09-30T04:43:35;96279.22;;;17.81;63.64
82379;BME280;72008;48.140;11.614;2023-09-30T04:44:35;96280.28;;;17.77;64.13
82379;BME280;72008;48.140;11.614;2023-09-30T04:45:36;96277.19;;;17.78;64.62
82379;BME280;72008;48.140;11.614;2023-09-30T04:46:36;96275.66;;;17.81;64.70
82379;BME280;72008;48.140;11.614;2023-09-30T04:47:37;96281.19;;;17.81;64.57
82379;BME280;72008;48.140;11.614;2023-09-30T04:48:37;96278.00;;;17.79;64.54
82379;BME280;72008;48.140;11.614;2023-09-30T04:49:37;96292.28;;;17.81;65.68
82379;BME280;72008;48.140;11.614;2023-09-30T04:50:41;96296.91;;;17.77;64.09
82379;BME280;72008;48.140;11.614;2023-09-30T04:51:41;96292.56;;;17.76;65.04
82379;BME280;72008;48.140;11.614;2023-09-30T04:52:43;96298.56;;;17.78;65.39
82379;BME280;72008;48.140;11.614;2023-09-30T04:53:44;96289.78;;;17.76;64.40
82379;BME280;72008;48.140;11.614;2023-09-30T04:54:44;96292.56;;;17.76;65.67
82379;BME280;72008;48.140;11.614;2023-09-30T04:55:44;96289.78;;;17.76;64.39
82379;BME280;72008;48.140;11.614;2023-09-30T04:56:45;96291.66;;;17.71;64.56
82379;BME280;72008;48.140;11.614;2023-09-30T04:57:46;96292.34;;;17.65;65.19
82379;BME280;72008;48.140;11.614;2023-09-30T04:58:47;96286.38;;;17.63;65.75
82379;BME280;72008;48.140;11.614;2023-09-30T04:59:47;96287.63;;;17.65;65.12
82379;BME280;72008;48.140;11.614;2023-09-30T05:00:48;96284.09;;;17.68;64.58
82379;BME280;72008;48.140;11.614;2023-09-30T05:01:48;96284.06;;;17.65;65.74
82379;BME280;72008;48.140;11.614;2023-09-30T05:02:48;96287.63;;;17.65;65.18
82379;BME280;72008;48.140;11.614;2023-09-30T05:03:49;96287.63;;;17.65;65.43
82379;BME280;72008;48.140;11.614;2023-09-30T05:04:49;96289.97;;;17.63;64.60
82379;BME280;72008;48.140;11.614;2023-09-30T05:05:53;96285.59;;;17.62;65.28
82379;BME280;72008;48.140;11.614;2023-09-30T05:06:54;96289.97;;;17.63;64.91
82379;BME280;72008;48.140;11.614;2023-09-30T05:07:54;96289.97;;;17.63;65.65
82379;BME280;72008;48.140;11.614;2023-09-30T05:08:55;96291.63;;;17.68;65.43
82379;BME280;72008;48.140;11.614;2023-09-30T05:09:55;96288.34;;;17.62;65.90
82379;BME280;72008;48.140;11.614;2023-09-30T05:10:56;96295.91;;;17.65;65.26
82379;BME280;72008;48.140;11.614;2023-09-30T05:11:56;96288.78;;;17.64;64.88
82379;BME280;72008;48.140;11.614;2023-09-30T05:12:57;96291.91;;;17.63;65.45
82379;BME280;72008;48.140;11.614;2023-09-30T05:13:57;96289.09;;;17.59;65.41
82379;BME280;72008;48.140;11.614;2023-09-30T05:14:58;96295.75;;;17.55;66.05
82379;BME280;72008;48.140;11.614;2023-09-30T05:15:58;96302.53;;;17.57;66.63
82379;BME280;72008;48.140;11.614;2023-09-30T05:16:59;96304.56;;;17.60;66.27